sensor_id;sensor_type;location;lat;lon;timestamp;P1;durP1;ratioP1;P2;durP2;ratioP2
5819;SDS011;2936;47.348;9.640;2024-03-07T00:02:26;13.23;;;10.25;;
5819;SDS011;2936;47.348;9.640;2024-03-07T00:04:54;23.80;;;12.27;;
5819;SDS011;2936;47.348;9.640;2024-03-07T00:07:22;16.58;;;11.02;;
5819;SDS011;2936;47.348;9.640;2024-03-07T00:09:50;16.42;;;10.80;;
5819;SDS011;2936;47.348;9.640;2024-03-07T00:12:19;19.58;;;10.90;;
5819;SDS011;2936;47.348;9.640;2024-03-07T00:14:48;19.55;;;11.35;;
5819;SDS011;2936;47.348;9.640;2024-03-07T00:17:17;17.77;;;11.70;;
5819;SDS011;2936;47.348;9.640;2024-03-07T00:19:45;17.73;;;9.57;;
5819;SDS011;2936;47.348;9.640;2024-03-07T00:22:14;17.17;;;11.25;;
5819;SDS011;2936;47.348;9.640;2024-03-07T00:24:42;11.05;;;9.55;;
5819;SDS011;2936;47.348;9.640;2024-03-07T00:27:12;14.07;;;9.50;;
5819;SDS011;2936;47.348;9.640;2024-03-07T00:29:41;13.35;;;11.48;;
5819;SDS011;2936;47.348;9.640;2024-03-07T00:32:09;17.70;;;10.75;;
5819;SDS011;2936;47.348;9.640;2024-03-07T00:34:38;14.93;;;10.65;;
5819;SDS011;2936;47.348;9.640;2024-03-07T00:37:06;18.45;;;11.23;;
5819;SDS011;2936;47.348;9.640;2024-03-07T00:39:34;17.85;;;10.50;;
5819;SDS011;2936;47.348;9.640;2024-03-07T00:42:01;13.93;;;10.55;;
5819;SDS011;2936;47.348;9.640;2024-03-07T00:44:29;19.20;;;11.20;;
5819;SDS011;2936;47.348;9.640;2024-03-07T00:46:57;17.10;;;11.90;;
5819;SDS011;2936;47.348;9.640;2024-03-07T00:49:24;16.50;;;11.40;;
5819;SDS011;2936;47.348;9.640;2024-03-07T00:51:55;12.35;;;10.45;;
5819;SDS011;2936;47.348;9.640;2024-03-07T00:54:22;23.38;;;11.68;;
5819;SDS011;2936;47.348;9.640;2024-03-07T00:56:50;19.15;;;10.10;;
5819;SDS011;2936;47.348;9.640;2024-03-07T00:59:18;17.02;;;9.90;;
5819;SDS011;2936;47.348;9.640;2024-03-07T01:01:46;17.20;;;9.93;;
5819;SDS011;2936;47.348;9.640;2024-03-07T01:04:14;16.33;;;10.40;;
5819;SDS011;2936;47.348;9.640;2024-03-07T01:06:42;13.43;;;10.38;;
5819;SDS011;2936;47.348;9.640;2024-03-07T01:09:12;15.77;;;11.05;;
5819;SDS011;2936;47.348;9.640;2024-03-07T01:11:42;17.77;;;11.45;;
5819;SDS011;2936;47.348;9.640;2024-03-07T01:14:10;13.85;;;10.02;;
5819;SDS011;2936;47.348;9.640;2024-03-07T01:16:39;13.30;;;9.18;;
5819;SDS011;2936;47.348;9.640;2024-03-07T01:19:06;14.18;;;9.18;;
5819;SDS011;2936;47.348;9.640;2024-03-07T01:21:34;12.43;;;9.55;;
5819;SDS011;2936;47.348;9.640;2024-03-07T01:24:03;15.77;;;9.88;;
5819;SDS011;2936;47.348;9.640;2024-03-07T01:26:33;10.30;;;8.95;;
5819;SDS011;2936;47.348;9.640;2024-03-07T01:29:01;12.35;;;9.65;;
5819;SDS011;2936;47.348;9.640;2024-03-07T01:31:32;11.85;;;8.98;;
5819;SDS011;2936;47.348;9.640;2024-03-07T01:33:59;12.15;;;9.73;;
5819;SDS011;2936;47.348;9.640;2024-03-07T01:36:27;14.10;;;9.73;;
5819;SDS011;2936;47.348;9.640;2024-03-07T01:38:55;17.92;;;9.98;;
5819;SDS011;2936;47.348;9.640;2024-03-07T01:41:23;20.98;;;11.30;;
5819;SDS011;2936;47.348;9.640;2024-03-07T01:43:52;16.77;;;10.07;;
5819;SDS011;2936;47.348;9.640;2024-03-07T01:46:20;22.08;;;10.57;;
5819;SDS011;2936;47.348;9.640;2024-03-07T01:48:47;17.65;;;9.50;;
5819;SDS011;2936;47.348;9.640;2024-03-07T01:51:15;16.88;;;9.73;;
5819;SDS011;2936;47.348;9.640;2024-03-07T01:53:43;22.95;;;10.10;;
5819;SDS011;2936;47.348;9.640;2024-03-07T01:56:11;13.30;;;10.20;;
5819;SDS011;2936;47.348;9.640;2024-03-07T01:58:40;19.17;;;11.30;;
5819;SDS011;2936;47.348;9.640;2024-03-07T02:01:11;21.38;;;12.00;;
5819;SDS011;2936;47.348;9.640;2024-03-07T02:03:40;18.63;;;10.95;;
5819;SDS011;2936;47.348;9.640;2024-03-07T02:06:09;14.07;;;9.95;;
5819;SDS011;2936;47.348;9.640;2024-03-07T02:08:37;18.55;;;10.30;;
5819;SDS011;2936;47.348;9.640;2024-03-07T02:11:05;16.90;;;10.85;;
5819;SDS011;2936;47.348;9.640;2024-03-07T02:13:34;18.40;;;11.48;;
5819;SDS011;2936;47.348;9.640;2024-03-07T02:16:02;17.88;;;10.90;;
5819;SDS011;2936;47.348;9.640;2024-03-07T02:18:32;16.27;;;10.85;;
5819;SDS011;2936;47.348;9.640;2024-03-07T02:21:05;15.40;;;10.30;;
5819;SDS011;2936;47.348;9.640;2024-03-07T02:23:33;16.23;;;11.20;;
5819;SDS011;2936;47.348;9.640;2024-03-07T02:26:01;20.75;;;12.55;;
5819;SDS011;2936;47.348;9.640;2024-03-07T02:28:29;18.17;;;11.30;;
5819;SDS011;2936;47.348;9.640;2024-03-07T02:30:57;15.50;;;10.52;;
5819;SDS011;2936;47.348;9.640;2024-03-07T02:33:24;14.55;;;9.05;;
5819;SDS011;2936;47.348;9.640;2024-03-07T02:35:52;15.65;;;10.95;;
5819;SDS011;2936;47.348;9.640;2024-03-07T02:38:21;25.88;;;11.10;;
5819;SDS011;2936;47.348;9.640;2024-03-07T02:40:49;12.50;;;9.38;;
5819;SDS011;2936;47.348;9.640;2024-03-07T02:43:17;21.25;;;12.20;;
5819;SDS011;2936;47.348;9.640;2024-03-07T02:45:45;20.63;;;11.65;;
5819;SDS011;2936;47.348;9.640;2024-03-07T02:48:12;21.05;;;11.70;;
5819;SDS011;2936;47.348;9.640;2024-03-07T02:50:40;23.63;;;12.13;;
5819;SDS011;2936;47.348;9.640;2024-03-07T02:53:08;20.70;;;12.57;;
5819;SDS011;2936;47.348;9.640;2024-03-07T02:55:37;17.95;;;11.93;;
5819;SDS011;2936;47.348;9.640;2024-03-07T02:58:06;26.65;;;14.43;;
5819;SDS011;2936;47.348;9.640;2024-03-07T03:00:34;23.75;;;12.57;;
5819;SDS011;2936;47.348;9.640;2024-03-07T03:03:02;18.48;;;11.55;;
5819;SDS011;2936;47.348;9.640;2024-03-07T03:05:30;23.05;;;12.38;;
5819;SDS011;2936;47.348;9.640;2024-03-07T03:07:58;17.27;;;11.65;;
5819;SDS011;2936;47.348;9.640;2024-03-07T03:10:26;23.25;;;12.85;;
5819;SDS011;2936;47.348;9.640;2024-03-07T03:12:55;24.20;;;12.73;;
5819;SDS011;2936;47.348;9.640;2024-03-07T03:15:24;21.35;;;12.63;;
5819;SDS011;2936;47.348;9.640;2024-03-07T03:17:52;22.05;;;11.65;;
5819;SDS011;2936;47.348;9.640;2024-03-07T03:20:22;25.63;;;12.52;;
5819;SDS011;2936;47.348;9.640;2024-03-07T03:22:59;19.73;;;11.52;;
5819;SDS011;2936;47.348;9.640;2024-03-07T03:25:28;25.63;;;13.70;;
5819;SDS011;2936;47.348;9.640;2024-03-07T03:28:01;24.08;;;12.70;;
5819;SDS011;2936;47.348;9.640;2024-03-07T03:30:29;21.83;;;12.07;;
5819;SDS011;2936;47.348;9.640;2024-03-07T03:32:57;23.23;;;12.57;;
5819;SDS011;2936;47.348;9.640;2024-03-07T03:35:25;21.33;;;13.50;;
5819;SDS011;2936;47.348;9.640;2024-03-07T03:37:53;22.58;;;12.50;;
5819;SDS011;2936;47.348;9.640;2024-03-07T03:40:21;23.10;;;12.57;;
5819;SDS011;2936;47.348;9.640;2024-03-07T03:42:49;19.20;;;11.02;;
5819;SDS011;2936;47.348;9.640;2024-03-07T03:45:19;20.67;;;12.82;;
5819;SDS011;2936;47.348;9.640;2024-03-07T03:47:47;21.98;;;12.05;;
5819;SDS011;2936;47.348;9.640;2024-03-07T03:50:15;25.85;;;13.68;;
5819;SDS011;2936;47.348;9.640;2024-03-07T03:52:43;24.52;;;13.30;;
5819;SDS011;2936;47.348;9.640;2024-03-07T03:55:11;26.55;;;13.18;;
5819;SDS011;2936;47.348;9.640;2024-03-07T03:57:40;26.77;;;13.93;;
5819;SDS011;2936;47.348;9.640;2024-03-07T04:00:09;23.25;;;13.80;;
5819;SDS011;2936;47.348;9.640;2024-03-07T04:02:41;25.67;;;12.95;;
5819;SDS011;2936;47.348;9.640;2024-03-07T04:05:08;18.77;;;12.43;;
5819;SDS011;2936;47.348;9.640;2024-03-07T04:07:37;22.85;;;13.75;;
5819;SDS011;2936;47.348;9.640;2024-03-07T04:10:05;20.90;;;13.38;;
5819;SDS011;2936;47.348;9.640;2024-03-07T04:12:33;26.95;;;13.88;;
5819;SDS011;2936;47.348;9.640;2024-03-07T04:15:02;21.40;;;11.32;;
5819;SDS011;2936;47.348;9.640;2024-03-07T04:17:32;24.33;;;13.85;;
5819;SDS011;2936;47.348;9.640;2024-03-07T04:20:02;21.55;;;13.85;;
5819;SDS011;2936;47.348;9.640;2024-03-07T04:22:31;20.75;;;13.82;;
5819;SDS011;2936;47.348;9.640;2024-03-07T04:24:58;25.70;;;14.45;;
5819;SDS011;2936;47.348;9.640;2024-03-07T04:27:26;20.33;;;12.68;;
5819;SDS011;2936;47.348;9.640;2024-03-07T04:29:54;21.55;;;12.95;;
5819;SDS011;2936;47.348;9.640;2024-03-07T04:32:22;25.52;;;13.40;;
5819;SDS011;2936;47.348;9.640;2024-03-07T04:34:50;25.33;;;13.50;;
5819;SDS011;2936;47.348;9.640;2024-03-07T04:37:19;20.45;;;13.68;;
5819;SDS011;2936;47.348;9.640;2024-03-07T04:39:47;23.80;;;13.88;;
5819;SDS011;2936;47.348;9.640;2024-03-07T04:42:14;27.80;;;13.05;;
5819;SDS011;2936;47.348;9.640;2024-03-07T04:44:42;17.90;;;12.25;;
5819;SDS011;2936;47.348;9.640;2024-03-07T04:47:10;16.45;;;11.90;;
5819;SDS011;2936;47.348;9.640;2024-03-07T04:49:37;25.65;;;13.73;;
5819;SDS011;2936;47.348;9.640;2024-03-07T04:52:05;22.50;;;13.18;;
5819;SDS011;2936;47.348;9.640;2024-03-07T04:54:35;26.30;;;13.40;;
5819;SDS011;2936;47.348;9.640;2024-03-07T04:57:02;23.98;;;13.30;;
5819;SDS011;2936;47.348;9.640;2024-03-07T04:59:31;20.60;;;13.82;;
5819;SDS011;2936;47.348;9.640;2024-03-07T05:01:58;28.15;;;14.90;;
5819;SDS011;2936;47.348;9.640;2024-03-07T05:04:27;22.92;;;11.20;;
5819;SDS011;2936;47.348;9.640;2024-03-07T05:06:55;22.52;;;13.88;;
5819;SDS011;2936;47.348;9.640;2024-03-07T05:09:23;22.58;;;13.10;;
5819;SDS011;2936;47.348;9.640;2024-03-07T05:11:55;30.30;;;13.68;;
5819;SDS011;2936;47.348;9.640;2024-03-07T05:14:23;29.42;;;15.52;;
5819;SDS011;2936;47.348;9.640;2024-03-07T05:16:51;23.92;;;13.93;;
5819;SDS011;2936;47.348;9.640;2024-03-07T05:19:30;22.23;;;13.68;;
5819;SDS011;2936;47.348;9.640;2024-03-07T05:21:58;26.10;;;13.48;;
5819;SDS011;2936;47.348;9.640;2024-03-07T05:24:26;28.05;;;14.57;;
5819;SDS011;2936;47.348;9.640;2024-03-07T05:26:55;29.35;;;15.77;;
5819;SDS011;2936;47.348;9.640;2024-03-07T05:29:23;26.85;;;14.48;;
5819;SDS011;2936;47.348;9.640;2024-03-07T05:31:50;32.88;;;15.80;;
5819;SDS011;2936;47.348;9.640;2024-03-07T05:34:18;26.02;;;15.85;;
5819;SDS011;2936;47.348;9.640;2024-03-07T05:36:48;18.60;;;13.05;;
5819;SDS011;2936;47.348;9.640;2024-03-07T05:39:16;23.90;;;13.65;;
5819;SDS011;2936;47.348;9.640;2024-03-07T05:41:45;22.08;;;13.05;;
5819;SDS011;2936;47.348;9.640;2024-03-07T05:44:15;30.30;;;13.45;;
5819;SDS011;2936;47.348;9.640;2024-03-07T05:46:44;21.23;;;14.10;;
5819;SDS011;2936;47.348;9.640;2024-03-07T05:49:14;22.40;;;14.10;;
5819;SDS011;2936;47.348;9.640;2024-03-07T05:51:42;40.22;;;15.73;;
5819;SDS011;2936;47.348;9.640;2024-03-07T05:54:10;32.53;;;16.02;;
5819;SDS011;2936;47.348;9.640;2024-03-07T05:56:38;31.13;;;15.50;;
5819;SDS011;2936;47.348;9.640;2024-03-07T05:59:06;24.52;;;12.02;;
5819;SDS011;2936;47.348;9.640;2024-03-07T06:01:36;30.13;;;12.00;;
5819;SDS011;2936;47.348;9.640;2024-03-07T06:04:04;19.65;;;12.13;;
5819;SDS011;2936;47.348;9.640;2024-03-07T06:06:34;19.88;;;12.23;;
5819;SDS011;2936;47.348;9.640;2024-03-07T06:09:02;20.55;;;11.90;;
5819;SDS011;2936;47.348;9.640;2024-03-07T06:11:32;19.45;;;10.63;;
5819;SDS011;2936;47.348;9.640;2024-03-07T06:14:00;20.27;;;13.38;;
5819;SDS011;2936;47.348;9.640;2024-03-07T06:16:30;19.20;;;12.30;;
5819;SDS011;2936;47.348;9.640;2024-03-07T06:19:01;15.88;;;11.38;;
5819;SDS011;2936;47.348;9.640;2024-03-07T06:21:29;21.95;;;11.73;;
5819;SDS011;2936;47.348;9.640;2024-03-07T06:23:57;19.38;;;10.80;;
5819;SDS011;2936;47.348;9.640;2024-03-07T06:26:26;22.90;;;10.82;;
5819;SDS011;2936;47.348;9.640;2024-03-07T06:29:03;15.43;;;9.38;;
5819;SDS011;2936;47.348;9.640;2024-03-07T06:31:31;16.60;;;10.05;;
5819;SDS011;2936;47.348;9.640;2024-03-07T06:34:01;17.52;;;11.43;;
5819;SDS011;2936;47.348;9.640;2024-03-07T06:36:29;11.98;;;8.98;;
5819;SDS011;2936;47.348;9.640;2024-03-07T06:38:57;13.18;;;9.70;;
5819;SDS011;2936;47.348;9.640;2024-03-07T06:41:25;14.60;;;9.43;;
5819;SDS011;2936;47.348;9.640;2024-03-07T06:43:53;14.98;;;8.68;;
5819;SDS011;2936;47.348;9.640;2024-03-07T06:46:21;16.08;;;10.15;;
5819;SDS011;2936;47.348;9.640;2024-03-07T06:48:49;11.13;;;8.48;;
5819;SDS011;2936;47.348;9.640;2024-03-07T06:51:19;13.88;;;9.27;;
5819;SDS011;2936;47.348;9.640;2024-03-07T06:53:47;20.63;;;10.70;;
5819;SDS011;2936;47.348;9.640;2024-03-07T06:56:15;18.98;;;11.10;;
5819;SDS011;2936;47.348;9.640;2024-03-07T06:58:43;11.40;;;8.40;;
5819;SDS011;2936;47.348;9.640;2024-03-07T07:01:11;14.07;;;10.13;;
5819;SDS011;2936;47.348;9.640;2024-03-07T07:03:40;15.10;;;10.52;;
5819;SDS011;2936;47.348;9.640;2024-03-07T07:06:10;17.75;;;11.88;;
5819;SDS011;2936;47.348;9.640;2024-03-07T07:08:40;18.17;;;10.57;;
5819;SDS011;2936;47.348;9.640;2024-03-07T07:11:09;26.35;;;9.82;;
5819;SDS011;2936;47.348;9.640;2024-03-07T07:13:37;22.20;;;11.38;;
5819;SDS011;2936;47.348;9.640;2024-03-07T07:16:04;17.85;;;11.07;;
5819;SDS011;2936;47.348;9.640;2024-03-07T07:18:32;20.15;;;11.82;;
5819;SDS011;2936;47.348;9.640;2024-03-07T07:21:00;14.77;;;9.93;;
5819;SDS011;2936;47.348;9.640;2024-03-07T07:23:28;14.32;;;8.60;;
5819;SDS011;2936;47.348;9.640;2024-03-07T07:25:57;17.10;;;11.93;;
5819;SDS011;2936;47.348;9.640;2024-03-07T07:28:24;17.42;;;11.77;;
5819;SDS011;2936;47.348;9.640;2024-03-07T07:30:52;15.98;;;9.73;;
5819;SDS011;2936;47.348;9.640;2024-03-07T07:33:19;7.50;;;6.50;;
5819;SDS011;2936;47.348;9.640;2024-03-07T07:35:47;9.18;;;6.80;;
5819;SDS011;2936;47.348;9.640;2024-03-07T07:38:14;13.45;;;8.52;;
5819;SDS011;2936;47.348;9.640;2024-03-07T07:40:42;17.00;;;9.85;;
5819;SDS011;2936;47.348;9.640;2024-03-07T07:43:12;19.92;;;9.95;;
5819;SDS011;2936;47.348;9.640;2024-03-07T07:45:40;13.35;;;8.38;;
5819;SDS011;2936;47.348;9.640;2024-03-07T07:48:07;11.77;;;8.73;;
5819;SDS011;2936;47.348;9.640;2024-03-07T07:50:36;11.18;;;8.15;;
5819;SDS011;2936;47.348;9.640;2024-03-07T07:53:04;12.00;;;8.80;;
5819;SDS011;2936;47.348;9.640;2024-03-07T07:55:34;13.05;;;9.23;;
5819;SDS011;2936;47.348;9.640;2024-03-07T07:58:02;11.82;;;8.70;;
5819;SDS011;2936;47.348;9.640;2024-03-07T08:00:32;17.15;;;8.13;;
5819;SDS011;2936;47.348;9.640;2024-03-07T08:03:01;9.10;;;7.30;;
5819;SDS011;2936;47.348;9.640;2024-03-07T08:05:29;8.75;;;7.20;;
5819;SDS011;2936;47.348;9.640;2024-03-07T08:07:58;11.48;;;8.52;;
5819;SDS011;2936;47.348;9.640;2024-03-07T08:10:27;12.55;;;8.25;;
5819;SDS011;2936;47.348;9.640;2024-03-07T08:12:55;18.27;;;8.55;;
5819;SDS011;2936;47.348;9.640;2024-03-07T08:15:24;12.68;;;9.57;;
5819;SDS011;2936;47.348;9.640;2024-03-07T08:17:55;12.25;;;7.88;;
5819;SDS011;2936;47.348;9.640;2024-03-07T08:20:22;11.25;;;8.27;;
5819;SDS011;2936;47.348;9.640;2024-03-07T08:22:52;14.32;;;9.80;;
5819;SDS011;2936;47.348;9.640;2024-03-07T08:25:20;8.60;;;6.70;;
5819;SDS011;2936;47.348;9.640;2024-03-07T08:27:48;9.05;;;7.40;;
5819;SDS011;2936;47.348;9.640;2024-03-07T08:30:16;12.40;;;8.85;;
5819;SDS011;2936;47.348;9.640;2024-03-07T08:32:45;8.45;;;6.85;;
5819;SDS011;2936;47.348;9.640;2024-03-07T08:35:14;12.70;;;8.35;;
5819;SDS011;2936;47.348;9.640;2024-03-07T08:37:41;11.50;;;8.80;;
5819;SDS011;2936;47.348;9.640;2024-03-07T08:40:09;11.23;;;8.15;;
5819;SDS011;2936;47.348;9.640;2024-03-07T08:42:44;11.10;;;7.25;;
5819;SDS011;2936;47.348;9.640;2024-03-07T08:45:11;13.25;;;9.13;;
5819;SDS011;2936;47.348;9.640;2024-03-07T08:47:42;12.55;;;7.47;;
5819;SDS011;2936;47.348;9.640;2024-03-07T08:50:10;7.78;;;6.55;;
5819;SDS011;2936;47.348;9.640;2024-03-07T08:52:40;10.18;;;6.60;;
5819;SDS011;2936;47.348;9.640;2024-03-07T08:55:08;8.93;;;6.30;;
5819;SDS011;2936;47.348;9.640;2024-03-07T08:57:36;8.73;;;6.70;;
5819;SDS011;2936;47.348;9.640;2024-03-07T09:00:04;7.47;;;6.40;;
5819;SDS011;2936;47.348;9.640;2024-03-07T09:02:34;7.82;;;6.25;;
5819;SDS011;2936;47.348;9.640;2024-03-07T09:05:02;6.05;;;5.30;;
5819;SDS011;2936;47.348;9.640;2024-03-07T09:07:30;8.73;;;6.15;;
5819;SDS011;2936;47.348;9.640;2024-03-07T09:09:59;16.55;;;6.05;;
5819;SDS011;2936;47.348;9.640;2024-03-07T09:12:26;6.93;;;5.70;;
5819;SDS011;2936;47.348;9.640;2024-03-07T09:14:54;6.90;;;5.40;;
5819;SDS011;2936;47.348;9.640;2024-03-07T09:17:22;5.30;;;4.85;;
5819;SDS011;2936;47.348;9.640;2024-03-07T09:19:50;5.35;;;4.95;;
5819;SDS011;2936;47.348;9.640;2024-03-07T09:22:18;6.85;;;4.95;;
5819;SDS011;2936;47.348;9.640;2024-03-07T09:24:45;5.43;;;4.45;;
5819;SDS011;2936;47.348;9.640;2024-03-07T09:27:14;5.43;;;5.05;;
5819;SDS011;2936;47.348;9.640;2024-03-07T09:29:44;5.20;;;4.70;;
5819;SDS011;2936;47.348;9.640;2024-03-07T09:32:13;5.35;;;4.95;;
5819;SDS011;2936;47.348;9.640;2024-03-07T09:34:42;5.80;;;5.18;;
5819;SDS011;2936;47.348;9.640;2024-03-07T09:37:09;5.57;;;5.05;;
5819;SDS011;2936;47.348;9.640;2024-03-07T09:39:37;9.02;;;4.57;;
5819;SDS011;2936;47.348;9.640;2024-03-07T09:42:04;6.40;;;3.60;;
5819;SDS011;2936;47.348;9.640;2024-03-07T09:44:36;3.75;;;3.45;;
5819;SDS011;2936;47.348;9.640;2024-03-07T09:47:06;3.83;;;3.63;;
5819;SDS011;2936;47.348;9.640;2024-03-07T09:49:36;3.00;;;2.90;;
5819;SDS011;2936;47.348;9.640;2024-03-07T09:52:04;3.95;;;3.72;;
5819;SDS011;2936;47.348;9.640;2024-03-07T09:54:36;10.00;;;5.63;;
5819;SDS011;2936;47.348;9.640;2024-03-07T09:57:06;6.22;;;5.63;;
5819;SDS011;2936;47.348;9.640;2024-03-07T09:59:35;6.18;;;5.43;;
5819;SDS011;2936;47.348;9.640;2024-03-07T10:02:05;6.20;;;5.70;;
5819;SDS011;2936;47.348;9.640;2024-03-07T10:04:37;5.00;;;4.60;;
5819;SDS011;2936;47.348;9.640;2024-03-07T10:07:06;7.20;;;6.38;;
5819;SDS011;2936;47.348;9.640;2024-03-07T10:09:36;6.57;;;5.38;;
5819;SDS011;2936;47.348;9.640;2024-03-07T10:12:05;4.75;;;4.35;;
5819;SDS011;2936;47.348;9.640;2024-03-07T10:14:36;6.28;;;5.60;;
5819;SDS011;2936;47.348;9.640;2024-03-07T10:17:04;5.90;;;5.30;;
5819;SDS011;2936;47.348;9.640;2024-03-07T10:19:31;5.30;;;4.90;;
5819;SDS011;2936;47.348;9.640;2024-03-07T10:21:59;5.18;;;4.70;;
5819;SDS011;2936;47.348;9.640;2024-03-07T10:24:31;5.68;;;4.88;;
5819;SDS011;2936;47.348;9.640;2024-03-07T10:27:00;6.15;;;5.55;;
5819;SDS011;2936;47.348;9.640;2024-03-07T10:29:29;5.70;;;4.88;;
5819;SDS011;2936;47.348;9.640;2024-03-07T10:31:58;6.65;;;5.90;;
5819;SDS011;2936;47.348;9.640;2024-03-07T10:34:26;5.80;;;5.32;;
5819;SDS011;2936;47.348;9.640;2024-03-07T10:36:58;12.43;;;5.20;;
5819;SDS011;2936;47.348;9.640;2024-03-07T10:39:29;5.70;;;5.20;;
5819;SDS011;2936;47.348;9.640;2024-03-07T10:41:57;17.17;;;5.10;;
5819;SDS011;2936;47.348;9.640;2024-03-07T10:44:30;4.70;;;4.28;;
5819;SDS011;2936;47.348;9.640;2024-03-07T10:46:59;5.55;;;4.88;;
5819;SDS011;2936;47.348;9.640;2024-03-07T10:49:29;4.20;;;3.90;;
5819;SDS011;2936;47.348;9.640;2024-03-07T10:52:01;5.13;;;4.60;;
5819;SDS011;2936;47.348;9.640;2024-03-07T10:54:33;4.38;;;4.05;;
5819;SDS011;2936;47.348;9.640;2024-03-07T10:57:08;3.72;;;3.60;;
5819;SDS011;2936;47.348;9.640;2024-03-07T10:59:39;4.70;;;4.30;;
5819;SDS011;2936;47.348;9.640;2024-03-07T11:02:13;3.83;;;3.63;;
5819;SDS011;2936;47.348;9.640;2024-03-07T11:04:44;3.45;;;3.35;;
5819;SDS011;2936;47.348;9.640;2024-03-07T11:07:13;4.25;;;3.95;;
5819;SDS011;2936;47.348;9.640;2024-03-07T11:09:41;4.70;;;4.30;;
5819;SDS011;2936;47.348;9.640;2024-03-07T11:12:11;4.93;;;4.63;;
5819;SDS011;2936;47.348;9.640;2024-03-07T11:14:42;6.40;;;4.10;;
5819;SDS011;2936;47.348;9.640;2024-03-07T11:17:13;3.90;;;3.70;;
5819;SDS011;2936;47.348;9.640;2024-03-07T11:19:40;3.38;;;3.28;;
5819;SDS011;2936;47.348;9.640;2024-03-07T11:22:10;5.78;;;4.03;;
5819;SDS011;2936;47.348;9.640;2024-03-07T11:24:41;3.72;;;3.42;;
5819;SDS011;2936;47.348;9.640;2024-03-07T11:27:10;4.15;;;3.85;;
5819;SDS011;2936;47.348;9.640;2024-03-07T11:29:39;3.85;;;3.55;;
5819;SDS011;2936;47.348;9.640;2024-03-07T11:32:08;4.32;;;4.03;;
5819;SDS011;2936;47.348;9.640;2024-03-07T11:34:39;4.10;;;3.80;;
5819;SDS011;2936;47.348;9.640;2024-03-07T11:37:08;5.25;;;3.72;;
5819;SDS011;2936;47.348;9.640;2024-03-07T11:39:43;4.10;;;3.72;;
5819;SDS011;2936;47.348;9.640;2024-03-07T11:42:24;4.15;;;3.90;;
5819;SDS011;2936;47.348;9.640;2024-03-07T11:44:59;4.75;;;4.35;;
5819;SDS011;2936;47.348;9.640;2024-03-07T11:47:34;3.53;;;3.30;;
5819;SDS011;2936;47.348;9.640;2024-03-07T11:50:06;4.57;;;4.20;;
5819;SDS011;2936;47.348;9.640;2024-03-07T11:52:37;4.47;;;3.95;;
5819;SDS011;2936;47.348;9.640;2024-03-07T11:55:07;4.53;;;3.78;;
5819;SDS011;2936;47.348;9.640;2024-03-07T11:57:35;3.72;;;3.50;;
5819;SDS011;2936;47.348;9.640;2024-03-07T12:00:04;4.25;;;4.05;;
5819;SDS011;2936;47.348;9.640;2024-03-07T12:02:33;4.35;;;4.05;;
5819;SDS011;2936;47.348;9.640;2024-03-07T12:05:02;4.50;;;4.07;;
5819;SDS011;2936;47.348;9.640;2024-03-07T12:07:32;6.60;;;4.43;;
5819;SDS011;2936;47.348;9.640;2024-03-07T12:09:59;5.10;;;3.58;;
5819;SDS011;2936;47.348;9.640;2024-03-07T12:12:29;4.05;;;3.85;;
5819;SDS011;2936;47.348;9.640;2024-03-07T12:14:58;4.30;;;4.00;;
5819;SDS011;2936;47.348;9.640;2024-03-07T12:17:27;5.07;;;4.65;;
5819;SDS011;2936;47.348;9.640;2024-03-07T12:19:55;5.40;;;4.90;;
5819;SDS011;2936;47.348;9.640;2024-03-07T12:22:26;4.45;;;4.15;;
5819;SDS011;2936;47.348;9.640;2024-03-07T12:25:03;4.15;;;3.92;;
5819;SDS011;2936;47.348;9.640;2024-03-07T12:27:33;4.03;;;3.72;;
5819;SDS011;2936;47.348;9.640;2024-03-07T12:30:04;3.95;;;3.70;;
5819;SDS011;2936;47.348;9.640;2024-03-07T12:32:47;3.72;;;3.55;;
5819;SDS011;2936;47.348;9.640;2024-03-07T12:35:15;3.92;;;3.72;;
5819;SDS011;2936;47.348;9.640;2024-03-07T12:37:43;4.00;;;3.80;;
5819;SDS011;2936;47.348;9.640;2024-03-07T12:40:13;4.57;;;4.18;;
5819;SDS011;2936;47.348;9.640;2024-03-07T12:42:45;4.28;;;4.00;;
5819;SDS011;2936;47.348;9.640;2024-03-07T12:45:13;5.05;;;4.63;;
5819;SDS011;2936;47.348;9.640;2024-03-07T12:47:42;7.95;;;4.50;;
5819;SDS011;2936;47.348;9.640;2024-03-07T12:50:12;9.70;;;5.00;;
5819;SDS011;2936;47.348;9.640;2024-03-07T12:52:40;5.47;;;4.97;;
5819;SDS011;2936;47.348;9.640;2024-03-07T12:55:08;5.35;;;4.25;;
5819;SDS011;2936;47.348;9.640;2024-03-07T12:57:37;5.72;;;5.10;;
5819;SDS011;2936;47.348;9.640;2024-03-07T13:00:07;4.03;;;3.72;;
5819;SDS011;2936;47.348;9.640;2024-03-07T13:02:44;3.90;;;3.70;;
5819;SDS011;2936;47.348;9.640;2024-03-07T13:05:11;5.40;;;4.70;;
5819;SDS011;2936;47.348;9.640;2024-03-07T13:07:44;5.88;;;5.45;;
5819;SDS011;2936;47.348;9.640;2024-03-07T13:10:12;4.70;;;4.25;;
5819;SDS011;2936;47.348;9.640;2024-03-07T13:12:43;4.90;;;4.38;;
5819;SDS011;2936;47.348;9.640;2024-03-07T13:15:12;5.72;;;5.13;;
5819;SDS011;2936;47.348;9.640;2024-03-07T13:17:39;6.45;;;4.45;;
5819;SDS011;2936;47.348;9.640;2024-03-07T13:20:08;6.97;;;4.82;;
5819;SDS011;2936;47.348;9.640;2024-03-07T13:22:39;3.97;;;3.78;;
5819;SDS011;2936;47.348;9.640;2024-03-07T13:25:08;4.30;;;3.83;;
5819;SDS011;2936;47.348;9.640;2024-03-07T13:27:39;4.72;;;4.35;;
5819;SDS011;2936;47.348;9.640;2024-03-07T13:30:12;5.80;;;5.18;;
5819;SDS011;2936;47.348;9.640;2024-03-07T13:32:52;15.82;;;4.93;;
5819;SDS011;2936;47.348;9.640;2024-03-07T13:35:20;4.00;;;3.80;;
5819;SDS011;2936;47.348;9.640;2024-03-07T13:37:48;5.32;;;4.93;;
5819;SDS011;2936;47.348;9.640;2024-03-07T13:40:16;5.68;;;4.93;;
5819;SDS011;2936;47.348;9.640;2024-03-07T13:42:53;4.43;;;4.18;;
5819;SDS011;2936;47.348;9.640;2024-03-07T13:45:23;5.25;;;4.72;;
5819;SDS011;2936;47.348;9.640;2024-03-07T13:47:51;5.20;;;4.70;;
5819;SDS011;2936;47.348;9.640;2024-03-07T13:50:23;4.38;;;3.60;;
5819;SDS011;2936;47.348;9.640;2024-03-07T13:52:51;5.28;;;4.80;;
5819;SDS011;2936;47.348;9.640;2024-03-07T13:55:53;4.25;;;3.95;;
5819;SDS011;2936;47.348;9.640;2024-03-07T13:58:31;7.78;;;4.60;;
5819;SDS011;2936;47.348;9.640;2024-03-07T14:01:08;6.95;;;4.68;;
5819;SDS011;2936;47.348;9.640;2024-03-07T14:03:51;3.95;;;3.75;;
5819;SDS011;2936;47.348;9.640;2024-03-07T14:06:30;5.38;;;4.97;;
5819;SDS011;2936;47.348;9.640;2024-03-07T14:11:59;5.85;;;5.43;;
5819;SDS011;2936;47.348;9.640;2024-03-07T14:20:35;6.38;;;5.25;;
5819;SDS011;2936;47.348;9.640;2024-03-07T14:23:10;5.55;;;5.05;;
5819;SDS011;2936;47.348;9.640;2024-03-07T14:25:49;6.38;;;5.10;;
5819;SDS011;2936;47.348;9.640;2024-03-07T14:31:03;14.38;;;6.88;;
5819;SDS011;2936;47.348;9.640;2024-03-07T14:33:35;5.72;;;5.20;;
5819;SDS011;2936;47.348;9.640;2024-03-07T14:36:16;4.80;;;4.50;;
5819;SDS011;2936;47.348;9.640;2024-03-07T14:38:47;7.05;;;6.20;;
5819;SDS011;2936;47.348;9.640;2024-03-07T14:41:15;4.57;;;4.20;;
5819;SDS011;2936;47.348;9.640;2024-03-07T14:43:44;10.32;;;5.22;;
5819;SDS011;2936;47.348;9.640;2024-03-07T14:46:13;6.78;;;5.57;;
5819;SDS011;2936;47.348;9.640;2024-03-07T14:48:41;4.35;;;4.10;;
5819;SDS011;2936;47.348;9.640;2024-03-07T14:51:09;8.20;;;5.50;;
5819;SDS011;2936;47.348;9.640;2024-03-07T14:53:40;11.10;;;5.50;;
5819;SDS011;2936;47.348;9.640;2024-03-07T14:56:08;10.50;;;5.47;;
5819;SDS011;2936;47.348;9.640;2024-03-07T14:58:36;7.63;;;5.65;;
5819;SDS011;2936;47.348;9.640;2024-03-07T15:01:05;8.25;;;5.60;;
5819;SDS011;2936;47.348;9.640;2024-03-07T15:03:32;8.30;;;5.65;;
5819;SDS011;2936;47.348;9.640;2024-03-07T15:06:02;7.97;;;6.00;;
5819;SDS011;2936;47.348;9.640;2024-03-07T15:08:33;11.13;;;6.13;;
5819;SDS011;2936;47.348;9.640;2024-03-07T15:11:05;6.55;;;5.22;;
5819;SDS011;2936;47.348;9.640;2024-03-07T15:13:39;7.30;;;6.57;;
5819;SDS011;2936;47.348;9.640;2024-03-07T15:16:08;9.00;;;6.10;;
5819;SDS011;2936;47.348;9.640;2024-03-07T15:18:35;8.02;;;6.68;;
5819;SDS011;2936;47.348;9.640;2024-03-07T15:21:04;10.15;;;7.20;;
5819;SDS011;2936;47.348;9.640;2024-03-07T15:23:34;8.27;;;6.72;;
5819;SDS011;2936;47.348;9.640;2024-03-07T15:26:04;10.02;;;6.72;;